Time;durP1;ratioP1;P1;durP2;ratioP2;P2;SDS_P1;SDS_P2;PMS_P1;PMS_P2;Temp;Humidity;BMP_temperature;BMP_pressure;BME280_temperature;BME280_humidity;BME280_pressure;Samples;Min_cycle;Max_cycle;Signal;HPM_P1;HPM_P2
2021/09/09 00:00:04;;;;;;;4.53;1.53;;;18.10;99.90;;;;;;4974642;28;20460;-82
2021/09/09 00:02:31;;;;;;;1.67;1.53;;;18.10;99.90;;;;;;4974385;28;20930;-81
2021/09/09 00:04:58;;;;;;;2.40;0.97;;;18.10;99.90;;;;;;4974399;28;20485;-81
2021/09/09 00:07:24;;;;;;;3.53;1.40;;;18.10;99.90;;;;;;4974457;28;20473;-82
2021/09/09 00:09:51;;;;;;;2.03;1.37;;;18.10;99.90;;;;;;4974580;28;20949;-82
2021/09/09 00:12:18;;;;;;;1.70;1.23;;;18.10;99.90;;;;;;4974534;28;20461;-82
2021/09/09 00:14:46;;;;;;;1.30;1.20;;;18.10;99.90;;;;;;4974218;28;20461;-82
2021/09/09 00:17:13;;;;;;;1.73;1.33;;;18.10;99.90;;;;;;4974100;28;20838;-82
2021/09/09 00:19:39;;;;;;;2.33;1.67;;;18.10;99.90;;;;;;4974509;28;20450;-82
2021/09/09 00:22:06;;;;;;;1.97;1.53;;;18.10;99.90;;;;;;4974214;28;20779;-82
2021/09/09 00:24:33;;;;;;;2.07;1.87;;;18.10;99.90;;;;;;4974285;28;20489;-82
2021/09/09 00:26:59;;;;;;;2.23;1.20;;;18.10;99.90;;;;;;4974089;28;20967;-82
2021/09/09 00:29:26;;;;;;;1.33;1.23;;;18.10;99.90;;;;;;4974382;28;20449;-85
2021/09/09 00:31:54;;;;;;;1.60;1.50;;;18.10;99.90;;;;;;4975192;28;20464;-91
2021/09/09 00:34:21;;;;;;;5.23;1.67;;;18.10;99.90;;;;;;4974925;28;20488;-91
2021/09/09 00:36:48;;;;;;;3.03;1.47;;;18.10;99.90;;;;;;4976455;28;20936;-91
2021/09/09 00:39:15;;;;;;;3.53;2.20;;;18.10;99.90;;;;;;4978949;28;20449;-91
2021/09/09 00:41:41;;;;;;;7.37;1.20;;;18.10;99.90;;;;;;4979031;28;20817;-91
2021/09/09 00:44:21;;;;;;;1.50;1.10;;;18.00;99.90;;;;;;4979031;28;20493;-91
2021/09/09 00:46:59;;;;;;;2.13;1.10;;;18.00;99.90;;;;;;4979149;28;20433;-91
2021/09/09 00:49:26;;;;;;;2.00;1.30;;;18.00;99.90;;;;;;4978958;28;20413;-91
2021/09/09 00:51:53;;;;;;;1.20;1.10;;;18.00;99.90;;;;;;4978978;28;20457;-91
2021/09/09 00:54:20;;;;;;;3.33;1.37;;;18.00;99.90;;;;;;4979132;28;20465;-90
2021/09/09 00:56:47;;;;;;;1.77;1.20;;;18.00;99.90;;;;;;4978635;28;20444;-91
2021/09/09 00:59:14;;;;;;;4.60;1.70;;;18.00;99.90;;;;;;4978785;28;20449;-91
2021/09/09 01:01:41;;;;;;;2.50;1.10;;;18.00;99.90;;;;;;4978853;28;20456;-92
2021/09/09 01:04:09;;;;;;;4.30;2.43;;;18.00;99.90;;;;;;4978608;28;20513;-90
2021/09/09 01:06:36;;;;;;;2.10;1.13;;;18.00;99.90;;;;;;4978670;28;20460;-91
2021/09/09 01:09:03;;;;;;;3.00;1.60;;;18.00;99.90;;;;;;4978847;28;20467;-91
2021/09/09 01:11:30;;;;;;;2.40;1.37;;;18.00;99.90;;;;;;4978726;28;20964;-91
2021/09/09 01:14:05;;;;;;;2.37;1.77;;;18.00;99.90;;;;;;4978758;28;20841;-91
2021/09/09 01:16:31;;;;;;;3.17;1.57;;;18.00;99.90;;;;;;4978547;28;20897;-91
2021/09/09 01:18:59;;;;;;;2.20;1.53;;;18.00;99.90;;;;;;4978501;28;20448;-91
2021/09/09 01:21:27;;;;;;;3.43;1.60;;;18.00;99.90;;;;;;4978373;28;20441;-90
2021/09/09 01:23:55;;;;;;;1.70;1.40;;;18.00;99.90;;;;;;4978396;28;20473;-91
2021/09/09 01:26:24;;;;;;;2.23;1.60;;;18.00;99.90;;;;;;4978560;28;20452;-91
2021/09/09 01:28:52;;;;;;;2.57;1.27;;;18.00;99.90;;;;;;4979005;28;20460;-92
2021/09/09 01:31:19;;;;;;;1.27;1.13;;;18.00;99.90;;;;;;4978952;28;20453;-91
2021/09/09 01:33:45;;;;;;;1.07;1.07;;;18.00;99.90;;;;;;4978169;28;20480;-91
2021/09/09 01:36:12;;;;;;;2.07;1.20;;;18.00;99.90;;;;;;4978376;28;20445;-91
2021/09/09 01:38:39;;;;;;;2.13;1.30;;;18.00;99.90;;;;;;4978016;28;20448;-91
2021/09/09 01:41:05;;;;;;;3.43;2.10;;;18.00;99.90;;;;;;4978295;28;20453;-91
2021/09/09 01:43:33;;;;;;;1.47;1.13;;;18.00;99.90;;;;;;4978108;28;20458;-92
2021/09/09 01:46:00;;;;;;;2.60;1.30;;;18.00;99.90;;;;;;4978561;28;20493;-91
2021/09/09 01:48:27;;;;;;;3.07;2.20;;;18.00;99.90;;;;;;4977205;28;20441;-92
2021/09/09 01:50:54;;;;;;;1.60;1.50;;;17.90;99.90;;;;;;4978184;28;20456;-91
2021/09/09 01:53:20;;;;;;;1.73;1.20;;;17.90;99.90;;;;;;4978063;28;20465;-91
2021/09/09 01:55:47;;;;;;;1.93;1.40;;;17.90;99.90;;;;;;4977732;28;20776;-92
2021/09/09 01:58:14;;;;;;;6.43;1.80;;;17.90;99.90;;;;;;4977524;28;20442;-92
2021/09/09 02:00:42;;;;;;;3.93;1.57;;;17.80;99.90;;;;;;4977654;28;20454;-91
2021/09/09 02:03:09;;;;;;;3.90;1.77;;;17.80;99.90;;;;;;4977680;28;20948;-92
2021/09/09 02:05:35;;;;;;;1.40;1.30;;;17.80;99.90;;;;;;4977398;28;20481;-91
2021/09/09 02:08:02;;;;;;;1.40;1.30;;;17.80;99.90;;;;;;4977715;28;20476;-92
2021/09/09 02:10:29;;;;;;;3.57;1.97;;;17.80;99.90;;;;;;4977319;28;20434;-92
2021/09/09 02:12:56;;;;;;;1.47;1.10;;;17.80;99.90;;;;;;4977367;28;20440;-91
2021/09/09 02:15:22;;;;;;;2.10;1.30;;;17.80;99.90;;;;;;4977401;28;20517;-91
2021/09/09 02:17:50;;;;;;;2.90;1.17;;;17.80;99.90;;;;;;4977213;28;20441;-91
2021/09/09 02:20:17;;;;;;;2.30;1.33;;;17.80;99.90;;;;;;4977372;28;20445;-91
2021/09/09 02:22:45;;;;;;;2.47;1.23;;;17.70;99.90;;;;;;4977044;28;20456;-91
2021/09/09 02:25:12;;;;;;;3.43;1.03;;;17.70;99.90;;;;;;4977117;28;20531;-91
2021/09/09 02:27:38;;;;;;;2.40;1.43;;;17.70;99.90;;;;;;4977044;28;20434;-91
2021/09/09 02:30:06;;;;;;;1.90;1.70;;;17.70;99.90;;;;;;4976985;28;20933;-92
2021/09/09 02:32:33;;;;;;;1.33;1.17;;;17.60;99.90;;;;;;4977304;28;20827;-92
2021/09/09 02:35:01;;;;;;;2.63;1.30;;;17.60;99.90;;;;;;4976664;28;20477;-89
2021/09/09 02:37:28;;;;;;;3.37;1.57;;;17.60;99.90;;;;;;4976756;28;20941;-92
2021/09/09 02:39:54;;;;;;;1.80;1.50;;;17.60;99.90;;;;;;4976953;28;20429;-92
2021/09/09 02:42:21;;;;;;;3.70;1.63;;;17.60;99.90;;;;;;4976973;28;20445;-92
2021/09/09 02:44:48;;;;;;;1.93;1.50;;;17.60;99.90;;;;;;4976845;28;20481;-91
2021/09/09 02:47:14;;;;;;;3.47;1.40;;;17.60;99.90;;;;;;4976645;28;20438;-92
2021/09/09 02:49:41;;;;;;;4.27;1.70;;;17.50;99.90;;;;;;4976887;28;20457;-90
2021/09/09 02:52:09;;;;;;;1.70;1.60;;;17.50;99.90;;;;;;4976776;28;20452;-92
2021/09/09 02:54:36;;;;;;;2.60;1.43;;;17.50;99.90;;;;;;4976825;28;20465;-91
2021/09/09 02:57:03;;;;;;;4.87;1.37;;;17.50;99.90;;;;;;4976681;28;20948;-92
2021/09/09 02:59:30;;;;;;;2.33;1.23;;;17.50;99.90;;;;;;4976283;28;20445;-92
2021/09/09 03:01:56;;;;;;;1.83;1.53;;;17.50;99.90;;;;;;4976599;28;20445;-91
2021/09/09 03:04:23;;;;;;;2.80;1.17;;;17.50;99.90;;;;;;4976252;28;20464;-92
2021/09/09 03:06:50;;;;;;;2.90;0.90;;;17.50;99.90;;;;;;4976501;28;20460;-91
2021/09/09 03:09:18;;;;;;;3.77;1.50;;;17.40;99.90;;;;;;4976950;28;20445;-91
2021/09/09 03:11:45;;;;;;;3.33;1.63;;;17.40;99.90;;;;;;4976317;28;20444;-91
2021/09/09 03:14:11;;;;;;;3.03;1.50;;;17.40;99.90;;;;;;4976297;28;20870;-90
2021/09/09 03:16:38;;;;;;;1.67;1.33;;;17.30;99.90;;;;;;4976322;28;20452;-91
2021/09/09 03:19:05;;;;;;;2.10;1.50;;;17.40;99.90;;;;;;4976171;28;20434;-91
2021/09/09 03:21:32;;;;;;;1.77;1.50;;;17.40;99.90;;;;;;4976145;28;20445;-91
2021/09/09 03:23:58;;;;;;;3.47;2.07;;;17.30;99.90;;;;;;4976145;28;20480;-91
2021/09/09 03:26:26;;;;;;;3.63;1.37;;;17.30;99.90;;;;;;4976007;28;20849;-91
2021/09/09 03:28:53;;;;;;;2.10;1.43;;;17.30;99.90;;;;;;4976227;28;20787;-91
2021/09/09 03:31:20;;;;;;;2.73;1.93;;;17.30;99.90;;;;;;4976091;28;20468;-91
2021/09/09 03:33:47;;;;;;;3.60;1.90;;;17.30;99.90;;;;;;4975859;28;20453;-90
2021/09/09 03:36:13;;;;;;;5.20;1.40;;;17.30;99.90;;;;;;4976058;28;20454;-91
2021/09/09 03:38:40;;;;;;;2.33;1.80;;;17.30;99.90;;;;;;4976030;28;20449;-89
2021/09/09 03:41:08;;;;;;;1.90;1.23;;;17.20;99.90;;;;;;4975865;28;20465;-91
2021/09/09 03:43:36;;;;;;;2.47;1.60;;;17.20;99.90;;;;;;4976000;28;20465;-91
2021/09/09 03:46:02;;;;;;;2.20;1.40;;;17.20;99.90;;;;;;4975760;28;20487;-90
2021/09/09 03:48:29;;;;;;;1.63;1.53;;;17.20;99.90;;;;;;4975764;28;20456;-90
2021/09/09 03:50:56;;;;;;;3.03;1.47;;;17.20;99.90;;;;;;4975925;28;20441;-89
2021/09/09 03:53:23;;;;;;;1.83;1.10;;;17.20;99.90;;;;;;4975618;28;20822;-90
2021/09/09 03:55:50;;;;;;;1.20;1.10;;;17.20;99.90;;;;;;4975724;28;20441;-90
2021/09/09 03:58:16;;;;;;;1.23;1.10;;;17.20;99.90;;;;;;4975490;28;20446;-90
2021/09/09 04:00:45;;;;;;;2.87;1.80;;;17.20;99.90;;;;;;4975768;28;20476;-90
2021/09/09 04:03:11;;;;;;;1.80;1.63;;;17.20;99.90;;;;;;4975359;28;20441;-90
2021/09/09 04:05:38;;;;;;;1.37;1.27;;;17.20;99.90;;;;;;4975271;28;20995;-90
2021/09/09 04:08:07;;;;;;;1.83;1.17;;;17.20;99.90;;;;;;4975741;28;20949;-89
2021/09/09 04:10:34;;;;;;;1.23;1.10;;;17.10;99.90;;;;;;4975524;28;20445;-90
2021/09/09 04:13:00;;;;;;;2.50;1.07;;;17.10;99.90;;;;;;4977834;28;20460;-89
2021/09/09 04:15:27;;;;;;;1.20;1.10;;;17.10;99.90;;;;;;4976878;28;20853;-89
2021/09/09 04:17:55;;;;;;;3.43;1.60;;;17.10;99.90;;;;;;4975703;28;20798;-90
2021/09/09 04:20:22;;;;;;;1.33;1.00;;;17.10;99.90;;;;;;4975564;28;20462;-90
2021/09/09 04:22:49;;;;;;;1.73;1.10;;;17.10;99.90;;;;;;4975387;28;20457;-90
2021/09/09 04:25:15;;;;;;;1.80;1.30;;;17.00;99.90;;;;;;4975563;28;20485;-90
2021/09/09 04:27:42;;;;;;;4.90;1.40;;;17.10;99.90;;;;;;4975626;28;20456;-90
2021/09/09 04:30:10;;;;;;;0.90;0.90;;;17.10;99.90;;;;;;4975697;28;20443;-90
2021/09/09 04:32:37;;;;;;;1.70;1.20;;;17.00;99.90;;;;;;4975385;28;20785;-90
2021/09/09 04:35:06;;;;;;;1.87;1.17;;;17.00;99.90;;;;;;4975119;28;20852;-89
2021/09/09 04:37:35;;;;;;;1.73;1.40;;;17.00;99.90;;;;;;4975231;28;20813;-91
2021/09/09 04:40:02;;;;;;;1.13;0.90;;;17.00;99.90;;;;;;4975475;28;20457;-90
2021/09/09 04:42:29;;;;;;;1.10;1.00;;;17.00;99.90;;;;;;4975518;28;20442;-90
2021/09/09 04:44:55;;;;;;;1.90;1.10;;;17.00;99.90;;;;;;4974897;28;20984;-89
2021/09/09 04:47:22;;;;;;;1.60;1.30;;;17.10;99.90;;;;;;4975210;28;20453;-89
2021/09/09 04:49:49;;;;;;;4.13;1.17;;;17.10;99.90;;;;;;4975132;28;20457;-91
2021/09/09 04:52:17;;;;;;;2.97;1.10;;;17.10;99.90;;;;;;4974923;28;20442;-90
2021/09/09 04:54:57;;;;;;;1.33;0.80;;;17.10;99.90;;;;;;4975270;28;20469;-91
2021/09/09 04:57:59;;;;;;;2.90;1.13;;;17.10;99.90;;;;;;4975181;28;20457;-91
2021/09/09 05:00:26;;;;;;;1.37;1.20;;;17.10;99.90;;;;;;4975143;28;20436;-90
2021/09/09 05:02:53;;;;;;;2.00;1.50;;;17.10;99.90;;;;;;4974928;28;20441;-89
2021/09/09 05:05:19;;;;;;;5.13;1.53;;;17.10;99.90;;;;;;4975014;28;20581;-90
2021/09/09 05:07:48;;;;;;;1.77;1.27;;;17.10;99.90;;;;;;4975033;28;20445;-93
2021/09/09 05:10:26;;;;;;;3.97;1.23;;;17.10;99.90;;;;;;4975024;28;20464;-90
2021/09/09 05:12:52;;;;;;;2.80;1.87;;;17.20;99.90;;;;;;4974775;28;20410;-90
2021/09/09 05:15:19;;;;;;;1.20;0.93;;;17.20;99.90;;;;;;4975040;28;20473;-90
2021/09/09 05:17:46;;;;;;;2.00;1.23;;;17.20;99.90;;;;;;4974889;28;20484;-90
2021/09/09 05:20:13;;;;;;;4.13;1.17;;;17.20;99.90;;;;;;4974874;28;20964;-90
2021/09/09 05:22:48;;;;;;;2.70;1.20;;;17.20;99.90;;;;;;4974900;28;20449;-90
2021/09/09 05:25:15;;;;;;;3.17;1.73;;;17.20;99.90;;;;;;4977711;28;20475;-89
2021/09/09 05:27:42;;;;;;;1.83;1.10;;;17.20;99.90;;;;;;4978259;28;20445;-90
2021/09/09 05:30:10;;;;;;;2.10;1.40;;;17.30;99.90;;;;;;4978217;28;20915;-90
2021/09/09 05:32:37;;;;;;;1.40;1.30;;;17.30;99.90;;;;;;4978131;28;20811;-89
2021/09/09 05:35:05;;;;;;;3.77;1.47;;;17.30;99.90;;;;;;4977866;28;20481;-88
2021/09/09 05:37:32;;;;;;;2.77;1.80;;;17.40;99.90;;;;;;4977944;28;20449;-91
2021/09/09 05:40:00;;;;;;;4.80;1.97;;;17.40;99.90;;;;;;4977945;28;20442;-90
2021/09/09 05:42:27;;;;;;;4.00;1.70;;;17.40;99.90;;;;;;4978072;28;20445;-90
2021/09/09 05:44:53;;;;;;;2.13;2.03;;;17.50;99.90;;;;;;4978014;28;20465;-87
2021/09/09 05:47:21;;;;;;;2.23;1.23;;;17.50;99.90;;;;;;4978222;28;20968;-90
2021/09/09 05:49:47;;;;;;;2.60;1.40;;;17.50;99.90;;;;;;4977981;28;20476;-89
2021/09/09 05:52:15;;;;;;;1.20;0.90;;;17.50;99.90;;;;;;4977652;28;20442;-92
2021/09/09 05:54:41;;;;;;;2.53;1.50;;;17.50;99.90;;;;;;4977610;28;20834;-90
2021/09/09 05:57:10;;;;;;;2.00;1.30;;;17.50;99.90;;;;;;4977808;28;20448;-90
2021/09/09 05:59:36;;;;;;;1.03;0.93;;;17.50;99.90;;;;;;4977501;28;20444;-90
2021/09/09 06:02:03;;;;;;;1.20;1.10;;;17.60;99.90;;;;;;4977492;28;20442;-90
2021/09/09 06:04:34;;;;;;;1.43;1.33;;;17.60;99.90;;;;;;4977570;28;20480;-90
2021/09/09 06:07:18;;;;;;;2.27;1.97;;;17.60;99.90;;;;;;4977791;28;20887;-90
2021/09/09 06:09:45;;;;;;;2.80;1.90;;;17.70;99.90;;;;;;4977596;28;20441;-90
2021/09/09 06:12:13;;;;;;;3.30;1.70;;;17.80;99.90;;;;;;4977559;28;20455;-91
2021/09/09 06:14:40;;;;;;;2.40;1.10;;;17.90;99.90;;;;;;4977270;28;20462;-90
2021/09/09 06:17:07;;;;;;;3.10;1.53;;;18.00;99.90;;;;;;4977397;28;20449;-89
2021/09/09 06:19:34;;;;;;;3.13;1.40;;;18.10;99.90;;;;;;4977209;28;20453;-90
2021/09/09 06:22:00;;;;;;;1.20;1.10;;;18.20;99.90;;;;;;4977243;28;20480;-89
2021/09/09 06:24:27;;;;;;;2.40;1.20;;;18.30;99.90;;;;;;4976932;28;20461;-91
2021/09/09 06:26:54;;;;;;;3.23;2.27;;;18.40;99.90;;;;;;4977131;28;20481;-89
2021/09/09 06:29:22;;;;;;;3.87;1.73;;;18.50;99.90;;;;;;4977230;28;20457;-90
2021/09/09 06:31:49;;;;;;;3.83;1.40;;;18.60;99.90;;;;;;4977115;28;20479;-90
2021/09/09 06:34:16;;;;;;;2.30;1.30;;;18.70;99.90;;;;;;4976301;28;20497;-89
2021/09/09 06:36:43;;;;;;;1.67;1.27;;;18.80;99.90;;;;;;4977075;28;20445;-90
2021/09/09 06:39:09;;;;;;;2.10;2.00;;;18.90;99.90;;;;;;4977024;28;20453;-91
2021/09/09 06:41:36;;;;;;;1.53;1.30;;;19.00;99.90;;;;;;4977009;28;20453;-91
2021/09/09 06:44:04;;;;;;;2.50;1.37;;;19.00;99.90;;;;;;4976653;28;20457;-91
2021/09/09 06:46:32;;;;;;;4.23;1.77;;;19.10;99.90;;;;;;4976916;28;20817;-91
2021/09/09 06:48:58;;;;;;;2.03;1.47;;;19.20;99.90;;;;;;4977117;28;20525;-89
2021/09/09 06:51:25;;;;;;;2.60;1.53;;;19.30;99.90;;;;;;4977538;28;20453;-91
2021/09/09 06:53:52;;;;;;;3.17;1.30;;;19.50;99.90;;;;;;4976348;28;20464;-91
2021/09/09 06:56:19;;;;;;;2.47;2.13;;;19.60;99.90;;;;;;4976641;28;20450;-90
2021/09/09 06:58:45;;;;;;;1.57;1.33;;;19.60;99.90;;;;;;4976649;28;20465;-91
2021/09/09 07:01:12;;;;;;;1.73;1.40;;;19.60;99.90;;;;;;4976764;28;20429;-88
2021/09/09 07:03:40;;;;;;;2.70;1.93;;;19.60;99.90;;;;;;4975737;28;20481;-87
2021/09/09 07:06:07;;;;;;;1.57;1.17;;;19.60;99.90;;;;;;4975759;28;20485;-87
2021/09/09 07:08:34;;;;;;;2.50;1.50;;;19.50;99.90;;;;;;4975847;28;20463;-87
2021/09/09 07:11:01;;;;;;;1.83;1.00;;;19.60;99.90;;;;;;4976019;28;20478;-87
2021/09/09 07:13:29;;;;;;;1.33;1.17;;;19.70;99.90;;;;;;4975869;28;20480;-88
2021/09/09 07:15:57;;;;;;;3.20;2.30;;;19.80;99.90;;;;;;4975772;28;20484;-88
2021/09/09 07:18:24;;;;;;;1.63;1.30;;;19.90;99.90;;;;;;4975776;28;20461;-87
2021/09/09 07:20:52;;;;;;;3.80;1.53;;;20.00;99.90;;;;;;4975566;28;20898;-87
2021/09/09 07:23:19;;;;;;;2.77;1.73;;;20.10;99.90;;;;;;4975305;28;20460;-87
2021/09/09 07:25:48;;;;;;;1.93;1.53;;;20.20;99.90;;;;;;4975772;28;20441;-87
2021/09/09 07:28:16;;;;;;;2.03;1.57;;;20.30;99.90;;;;;;4975362;28;20425;-88
2021/09/09 07:30:43;;;;;;;2.30;1.70;;;20.40;99.90;;;;;;4975384;28;20465;-85
2021/09/09 07:33:11;;;;;;;1.70;1.37;;;20.50;99.90;;;;;;4975450;28;20456;-89
2021/09/09 07:35:38;;;;;;;3.03;1.93;;;20.70;99.90;;;;;;4975704;28;20481;-89
2021/09/09 07:38:06;;;;;;;2.47;1.63;;;20.80;99.90;;;;;;4975853;28;20441;-89
2021/09/09 07:40:33;;;;;;;2.70;1.90;;;20.80;99.90;;;;;;4975848;28;20971;-89
2021/09/09 07:43:01;;;;;;;1.97;1.80;;;20.80;99.90;;;;;;4975686;28;20464;-89
2021/09/09 07:45:28;;;;;;;5.07;2.00;;;20.90;99.90;;;;;;4975282;28;20527;-87
2021/09/09 07:47:55;;;;;;;2.47;1.47;;;21.00;99.90;;;;;;4975216;28;20557;-89
2021/09/09 07:50:22;;;;;;;2.77;1.30;;;20.90;99.90;;;;;;4975970;28;20937;-91
2021/09/09 07:52:48;;;;;;;2.93;1.60;;;20.90;99.90;;;;;;4975403;28;20460;-89
2021/09/09 07:55:18;;;;;;;2.50;1.50;;;21.00;99.90;;;;;;4975810;28;20472;-90
2021/09/09 07:57:45;;;;;;;2.43;1.80;;;21.00;99.90;;;;;;4975891;28;20453;-87
2021/09/09 08:00:12;;;;;;;2.07;1.60;;;21.00;99.90;;;;;;4975321;28;20453;-88
2021/09/09 08:02:42;;;;;;;1.70;1.00;;;21.00;99.90;;;;;;4975335;28;20436;-87
2021/09/09 08:05:22;;;;;;;1.90;1.60;;;21.00;99.90;;;;;;4975012;28;20980;-87
2021/09/09 08:07:54;;;;;;;3.07;1.60;;;21.10;99.90;;;;;;4975185;28;20468;-87
2021/09/09 08:10:27;;;;;;;2.47;2.27;;;21.20;99.90;;;;;;4975926;28;20437;-89
2021/09/09 08:12:55;;;;;;;3.33;1.30;;;21.50;99.90;;;;;;4974916;28;20484;-86
2021/09/09 08:15:22;;;;;;;2.70;1.67;;;21.70;99.90;;;;;;4974420;28;20531;-86
2021/09/09 08:18:12;;;;;;;3.70;1.67;;;21.80;99.90;;;;;;4975193;28;20532;-89
2021/09/09 08:20:45;;;;;;;2.60;1.10;;;22.10;99.90;;;;;;4975564;28;20452;-89
2021/09/09 08:23:15;;;;;;;2.43;1.33;;;22.30;99.90;;;;;;4975155;28;21008;-90
2021/09/09 08:25:44;;;;;;;1.60;1.50;;;22.40;99.90;;;;;;4975365;28;20527;-89
2021/09/09 08:28:11;;;;;;;1.60;1.50;;;22.60;99.90;;;;;;4976201;28;20453;-90
2021/09/09 08:30:38;;;;;;;2.23;1.80;;;22.60;99.90;;;;;;4975734;28;20421;-90
2021/09/09 08:33:06;;;;;;;2.97;2.23;;;22.80;99.90;;;;;;4975531;28;20916;-90
2021/09/09 08:35:34;;;;;;;1.90;1.60;;;22.90;99.90;;;;;;4975241;28;20230;-91
2021/09/09 08:38:01;;;;;;;1.60;1.50;;;23.00;99.90;;;;;;4975462;28;20418;-90
2021/09/09 08:40:29;;;;;;;3.30;1.50;;;23.10;99.90;;;;;;4975151;28;20190;-91
2021/09/09 08:42:59;;;;;;;1.70;1.57;;;23.20;99.90;;;;;;4976059;28;20205;-91
2021/09/09 08:45:32;;;;;;;1.80;1.23;;;23.30;99.90;;;;;;4975360;28;20229;-91
2021/09/09 08:48:02;;;;;;;1.63;1.50;;;23.40;99.90;;;;;;4975047;28;20218;-90
2021/09/09 08:50:34;;;;;;;1.60;1.50;;;23.40;99.90;;;;;;4974746;28;20209;-90
2021/09/09 08:53:04;;;;;;;1.27;1.17;;;23.50;99.90;;;;;;4975097;28;20201;-89
2021/09/09 08:55:33;;;;;;;2.80;1.52;;;23.80;99.90;;;;;;4975062;28;20234;-90
2021/09/09 08:58:02;;;;;;;3.03;2.53;;;23.80;99.90;;;;;;4976533;28;20565;-91
2021/09/09 09:00:31;;;;;;;2.05;1.60;;;24.00;99.90;;;;;;4979079;28;20295;-91
2021/09/09 09:03:00;;;;;;;3.53;1.80;;;24.30;99.90;;;;;;4978471;28;20193;-91
2021/09/09 09:05:42;;;;;;;1.92;1.73;;;24.40;99.90;;;;;;4978536;28;20253;-91
2021/09/09 09:08:14;;;;;;;2.10;1.48;;;24.60;99.90;;;;;;4978563;28;20586;-91
2021/09/09 09:11:02;;;;;;;1.75;1.65;;;24.70;99.90;;;;;;4978665;28;20210;-90
2021/09/09 09:13:36;;;;;;;1.65;1.25;;;24.80;99.90;;;;;;4978747;28;20300;-90
2021/09/09 09:16:07;;;;;;;1.92;1.25;;;24.80;99.90;;;;;;4978308;28;20178;-90
2021/09/09 09:18:37;;;;;;;3.33;1.65;;;24.90;99.90;;;;;;4978967;28;20213;-91
2021/09/09 09:21:08;;;;;;;1.50;1.40;;;25.00;99.90;;;;;;4978221;28;20212;-90
2021/09/09 09:23:42;;;;;;;1.45;1.27;;;24.90;99.90;;;;;;4978838;28;20225;-91
2021/09/09 09:26:17;;;;;;;1.98;1.65;;;25.20;99.90;;;;;;4978951;28;20681;-91
2021/09/09 09:28:51;;;;;;;2.72;1.38;;;25.30;99.90;;;;;;4978771;28;20689;-91
2021/09/09 09:31:22;;;;;;;1.77;1.60;;;25.50;99.90;;;;;;4978553;28;20231;-91
2021/09/09 09:34:00;;;;;;;1.55;1.08;;;25.80;99.90;;;;;;4978253;28;20221;-91
2021/09/09 09:36:31;;;;;;;1.70;1.35;;;26.00;99.90;;;;;;4959226;29;20190;-92
2021/09/09 09:39:07;;;;;;;1.80;1.20;;;26.30;99.90;;;;;;4959061;29;20214;-88
2021/09/09 09:41:39;;;;;;;1.60;1.35;;;26.30;99.90;;;;;;4959069;29;20212;-91
2021/09/09 09:44:13;;;;;;;2.15;1.38;;;26.50;99.90;;;;;;4958773;28;20226;-90
2021/09/09 09:46:42;;;;;;;1.13;1.02;;;26.70;99.90;;;;;;4959385;29;20642;-90
2021/09/09 09:49:28;;;;;;;1.30;1.20;;;26.90;99.90;;;;;;4959324;29;20551;-91
2021/09/09 09:52:23;;;;;;;1.65;1.55;;;27.30;99.90;;;;;;4958844;29;20634;-92
2021/09/09 09:54:51;;;;;;;1.42;1.33;;;27.40;99.90;;;;;;4958794;28;20218;-92
2021/09/09 09:57:19;;;;;;;2.08;1.23;;;27.40;99.90;;;;;;4958918;29;20202;-92
2021/09/09 09:59:53;;;;;;;1.70;1.48;;;27.30;99.90;;;;;;4958538;29;20194;-89
2021/09/09 10:03:05;;;;;;;1.23;1.10;;;27.20;99.90;;;;;;4958629;29;20209;-92
2021/09/09 10:05:44;;;;;;;1.33;1.23;;;26.80;99.90;;;;;;4958436;28;20234;-93
2021/09/09 10:08:10;;;;;;;1.23;1.13;;;26.70;99.90;;;;;;4958613;29;20540;-91
2021/09/09 10:10:51;;;;;;;3.22;1.48;;;26.50;99.90;;;;;;4957704;28;20558;-94
2021/09/09 10:13:21;;;;;;;1.42;1.33;;;26.30;99.90;;;;;;4958305;28;20219;-92
2021/09/09 10:16:00;;;;;;;1.20;1.10;;;26.00;99.90;;;;;;4958712;29;20343;-92
2021/09/09 10:18:37;;;;;;;1.40;0.90;;;25.80;99.90;;;;;;4958420;29;20194;-89
2021/09/09 10:21:41;;;;;;;1.30;1.02;;;25.80;99.90;;;;;;4959644;29;20194;-93
2021/09/09 10:24:28;;;;;;;0.88;0.80;;;25.70;99.90;;;;;;4961038;28;20773;-93
2021/09/09 10:27:21;;;;;;;2.35;1.02;;;25.70;99.90;;;;;;4961069;29;20191;-94
2021/09/09 10:29:54;;;;;;;2.53;1.00;;;25.60;99.90;;;;;;4957098;29;20201;-86
2021/09/09 10:32:51;;;;;;;1.23;1.00;;;25.50;99.90;;;;;;4956962;29;20190;-86
2021/09/09 10:35:26;;;;;;;1.33;0.98;;;25.50;99.90;;;;;;4967157;28;20252;-86
2021/09/09 10:37:55;;;;;;;1.42;1.33;;;25.60;99.90;;;;;;4976208;28;20208;-85
2021/09/09 10:40:32;;;;;;;1.23;0.98;;;25.60;99.90;;;;;;4975734;28;20193;-84
2021/09/09 10:43:00;;;;;;;2.25;1.20;;;25.50;99.90;;;;;;4975989;28;20192;-84
2021/09/09 10:45:41;;;;;;;2.03;0.98;;;25.60;99.90;;;;;;4975558;28;20221;-85
2021/09/09 10:48:19;;;;;;;1.52;0.88;;;25.80;99.90;;;;;;4975508;28;20693;-86
2021/09/09 10:50:59;;;;;;;1.73;1.35;;;26.00;99.90;;;;;;4976335;28;20256;-86
2021/09/09 10:53:35;;;;;;;1.77;1.42;;;26.10;99.90;;;;;;4975477;28;20228;-85
2021/09/09 10:56:09;;;;;;;1.40;0.88;;;26.10;99.90;;;;;;4975747;28;20224;-85
2021/09/09 10:58:36;;;;;;;0.70;0.70;;;26.60;99.90;;;;;;4975751;28;20185;-86
2021/09/09 11:01:05;;;;;;;1.23;0.90;;;27.00;99.90;;;;;;4975387;28;20646;-86
2021/09/09 11:03:41;;;;;;;1.08;0.98;;;27.00;99.50;;;;;;4975595;28;20225;-85
2021/09/09 11:06:09;;;;;;;0.90;0.90;;;26.70;99.80;;;;;;4975444;28;20193;-86
2021/09/09 11:08:38;;;;;;;1.42;1.30;;;26.50;99.50;;;;;;4975523;28;20213;-86
2021/09/09 11:11:08;;;;;;;0.90;0.90;;;26.50;99.90;;;;;;4975585;28;20186;-86
2021/09/09 11:13:38;;;;;;;2.45;0.90;;;26.40;99.90;;;;;;4975988;28;20229;-86
2021/09/09 11:16:19;;;;;;;1.90;1.15;;;26.40;99.90;;;;;;4975181;28;20669;-86
2021/09/09 11:18:48;;;;;;;1.40;1.13;;;26.40;99.90;;;;;;4975630;28;20229;-85
2021/09/09 11:21:18;;;;;;;1.23;1.13;;;26.40;99.90;;;;;;4975024;28;20198;-85
2021/09/09 11:23:47;;;;;;;1.13;0.93;;;26.40;99.90;;;;;;4975525;28;20217;-85
2021/09/09 11:26:19;;;;;;;1.67;1.10;;;26.40;99.90;;;;;;4975159;28;20209;-86
2021/09/09 11:28:47;;;;;;;1.50;1.38;;;26.40;99.70;;;;;;4975110;28;20252;-86
2021/09/09 11:31:17;;;;;;;1.00;1.00;;;26.30;99.90;;;;;;4975232;28;20206;-84
2021/09/09 11:33:50;;;;;;;1.58;1.20;;;26.40;99.90;;;;;;4974992;28;20317;-85
2021/09/09 11:36:17;;;;;;;1.75;1.48;;;26.40;99.70;;;;;;4974633;28;20248;-84
2021/09/09 11:38:44;;;;;;;2.33;1.48;;;26.30;99.90;;;;;;4974973;28;20209;-85
2021/09/09 11:41:13;;;;;;;1.23;1.00;;;26.20;98.90;;;;;;4974955;28;20197;-85
2021/09/09 11:43:41;;;;;;;0.93;0.93;;;26.20;98.50;;;;;;4974590;28;20735;-85
2021/09/09 11:46:07;;;;;;;0.95;0.95;;;26.30;97.80;;;;;;4974914;28;20213;-84
2021/09/09 11:48:34;;;;;;;1.50;1.40;;;26.30;97.20;;;;;;4975010;28;20233;-85
2021/09/09 11:51:02;;;;;;;1.45;1.35;;;26.30;97.10;;;;;;4974803;28;20198;-86
2021/09/09 11:53:29;;;;;;;1.00;0.95;;;26.30;98.20;;;;;;4974739;28;20225;-86
2021/09/09 11:55:56;;;;;;;2.90;1.77;;;26.30;99.90;;;;;;4974772;28;20205;-85
2021/09/09 11:58:37;;;;;;;2.10;1.55;;;26.30;98.60;;;;;;4975307;28;20210;-85
2021/09/09 12:01:08;;;;;;;1.42;1.30;;;26.20;98.70;;;;;;4974699;28;20212;-86
2021/09/09 12:03:36;;;;;;;3.03;1.58;;;26.20;99.10;;;;;;4974922;28;20232;-85
2021/09/09 12:06:04;;;;;;;1.60;1.48;;;26.20;97.20;;;;;;4974485;28;20260;-85
2021/09/09 12:08:35;;;;;;;2.85;2.20;;;26.00;97.50;;;;;;4974303;28;20221;-86
2021/09/09 12:11:10;;;;;;;2.08;1.40;;;26.00;97.10;;;;;;4974572;28;20284;-85
2021/09/09 12:13:39;;;;;;;1.67;1.00;;;26.00;98.70;;;;;;4974321;28;20597;-84
2021/09/09 12:16:11;;;;;;;0.80;0.80;;;26.00;97.50;;;;;;4974468;28;20216;-85
2021/09/09 12:18:38;;;;;;;1.55;1.42;;;25.80;95.50;;;;;;4974623;28;20209;-88
2021/09/09 12:21:11;;;;;;;1.73;1.23;;;25.70;97.40;;;;;;4974682;28;20209;-88
2021/09/09 12:23:38;;;;;;;1.20;0.90;;;25.70;97.50;;;;;;4974737;28;20232;-88
2021/09/09 12:26:15;;;;;;;1.52;1.38;;;25.80;96.10;;;;;;4974409;28;20696;-90
2021/09/09 12:28:42;;;;;;;1.38;1.27;;;25.80;95.60;;;;;;4975094;28;20233;-89
2021/09/09 12:31:09;;;;;;;1.33;1.00;;;25.90;95.70;;;;;;4975224;28;20204;-88
2021/09/09 12:33:38;;;;;;;1.42;1.30;;;26.00;95.30;;;;;;4977985;28;20252;-89
2021/09/09 12:36:08;;;;;;;1.23;1.13;;;26.10;96.30;;;;;;4978463;28;20240;-89
2021/09/09 12:38:41;;;;;;;1.42;1.33;;;26.20;96.50;;;;;;4978895;28;20201;-89
2021/09/09 12:41:09;;;;;;;1.83;1.20;;;26.20;97.10;;;;;;4979385;28;20229;-88
2021/09/09 12:43:38;;;;;;;3.08;1.73;;;26.10;95.40;;;;;;4979116;28;20225;-88
2021/09/09 12:46:06;;;;;;;1.50;1.10;;;26.00;95.90;;;;;;4978506;28;20630;-88
2021/09/09 12:48:34;;;;;;;3.40;1.15;;;25.90;95.60;;;;;;4978756;28;20220;-88
2021/09/09 12:51:03;;;;;;;1.10;1.00;;;25.80;95.40;;;;;;4978185;28;20209;-88
2021/09/09 12:53:33;;;;;;;1.17;1.08;;;25.70;96.50;;;;;;4978501;28;20236;-90
2021/09/09 12:56:04;;;;;;;1.98;1.60;;;25.60;95.50;;;;;;4978352;28;20277;-89
2021/09/09 12:58:36;;;;;;;2.35;1.35;;;25.60;96.80;;;;;;4977996;28;20194;-88